Time;durP1;ratioP1;P1;durP2;ratioP2;P2;SDS_P1;SDS_P2;PMS_P1;PMS_P2;Temp;Humidity;BMP_temperature;BMP_pressure;BME280_temperature;BME280_humidity;BME280_pressure;Samples;Min_cycle;Max_cycle;Signal;HPM_P1;HPM_P2
2023/09/18 00:00:26;;;;;;;4.57;1.40;;;24.80;99.90;;;;;;4997282;28;20040;-50
2023/09/18 00:02:51;;;;;;;6.30;1.70;;;24.80;99.90;;;;;;5014874;28;20391;-51
2023/09/18 00:05:17;;;;;;;5.65;1.70;;;24.70;99.90;;;;;;5015075;28;20375;-51
2023/09/18 00:07:43;;;;;;;6.57;1.58;;;24.70;99.90;;;;;;5014955;28;20064;-50
2023/09/18 00:10:13;;;;;;;6.05;1.67;;;24.70;99.90;;;;;;5014781;28;20045;-50
2023/09/18 00:12:40;;;;;;;4.70;1.73;;;24.60;99.90;;;;;;5014875;28;20100;-51
2023/09/18 00:15:08;;;;;;;3.63;1.58;;;24.60;99.90;;;;;;5014979;28;20014;-51
2023/09/18 00:17:35;;;;;;;4.60;1.52;;;24.50;99.90;;;;;;5014777;28;20486;-50
2023/09/18 00:20:03;;;;;;;6.15;1.50;;;24.60;99.90;;;;;;5014910;28;20030;-51
2023/09/18 00:22:29;;;;;;;3.70;1.38;;;24.50;99.90;;;;;;5014757;28;20365;-50
2023/09/18 00:24:54;;;;;;;7.03;2.20;;;24.50;99.90;;;;;;4996967;28;20032;-50
2023/09/18 00:27:20;;;;;;;4.05;1.40;;;24.50;99.90;;;;;;4997138;28;20498;-51
2023/09/18 00:29:46;;;;;;;6.60;1.70;;;24.50;99.90;;;;;;5014444;28;20030;-51
2023/09/18 00:32:12;;;;;;;3.03;1.25;;;24.40;99.90;;;;;;5013946;28;20022;-50
2023/09/18 00:34:38;;;;;;;9.00;1.60;;;24.40;99.90;;;;;;5014175;28;20137;-51
2023/09/18 00:37:03;;;;;;;4.20;1.33;;;24.30;99.90;;;;;;5014441;28;20029;-50
2023/09/18 00:39:30;;;;;;;2.72;1.65;;;24.30;99.90;;;;;;5014573;28;20105;-51
2023/09/18 00:41:56;;;;;;;3.65;1.35;;;24.30;99.90;;;;;;5013743;28;20022;-50
2023/09/18 00:44:22;;;;;;;4.78;1.45;;;24.30;99.90;;;;;;5014131;28;20038;-50
2023/09/18 00:46:49;;;;;;;5.07;1.40;;;24.20;99.90;;;;;;5014160;28;20029;-51
2023/09/18 00:49:16;;;;;;;5.22;1.50;;;24.20;99.90;;;;;;5013966;28;20084;-50
2023/09/18 00:51:43;;;;;;;4.50;1.27;;;24.20;99.90;;;;;;5013990;28;20034;-50
2023/09/18 00:54:10;;;;;;;5.03;1.23;;;24.20;99.90;;;;;;5013910;28;20527;-50
2023/09/18 00:56:36;;;;;;;7.75;2.17;;;24.20;99.90;;;;;;5013845;28;20052;-51
2023/09/18 00:59:03;;;;;;;4.28;1.35;;;24.10;99.90;;;;;;5014214;28;20029;-50
2023/09/18 01:01:29;;;;;;;5.32;1.30;;;24.10;99.90;;;;;;5014176;28;20503;-51
2023/09/18 01:03:57;;;;;;;3.13;1.40;;;24.10;99.90;;;;;;5014069;28;20040;-50
2023/09/18 01:06:27;;;;;;;3.55;1.70;;;24.10;99.90;;;;;;5013697;28;20469;-51
2023/09/18 01:08:54;;;;;;;5.05;1.65;;;24.00;99.90;;;;;;5013773;28;20022;-51
2023/09/18 01:11:37;;;;;;;3.22;1.60;;;24.00;99.90;;;;;;5013785;28;20498;-50
2023/09/18 01:14:32;;;;;;;5.85;1.52;;;24.00;99.90;;;;;;5014011;28;20060;-51
2023/09/18 01:17:03;;;;;;;5.78;1.80;;;24.00;99.90;;;;;;5013633;28;20041;-51
2023/09/18 01:19:55;;;;;;;7.07;1.60;;;24.00;99.90;;;;;;5013630;28;20100;-51
2023/09/18 01:22:22;;;;;;;7.30;1.67;;;23.90;99.90;;;;;;5010465;28;20603;-51
2023/09/18 01:24:48;;;;;;;6.47;1.60;;;23.90;99.90;;;;;;5013415;28;20116;-51
2023/09/18 01:27:19;;;;;;;5.00;1.45;;;23.90;99.90;;;;;;5013396;28;20101;-51
2023/09/18 01:29:46;;;;;;;5.38;1.60;;;23.90;99.90;;;;;;4995638;28;20033;-51
2023/09/18 01:32:12;;;;;;;3.55;1.52;;;23.90;99.90;;;;;;5013345;28;20045;-51
2023/09/18 01:34:49;;;;;;;5.20;1.48;;;23.80;99.90;;;;;;5013247;28;20076;-51
2023/09/18 01:37:18;;;;;;;7.88;1.70;;;23.70;99.90;;;;;;5013204;28;20022;-50
2023/09/18 01:39:45;;;;;;;3.72;1.55;;;23.70;99.90;;;;;;5013242;28;20026;-50
2023/09/18 01:42:11;;;;;;;4.55;1.73;;;23.70;99.90;;;;;;5013227;28;20014;-50
2023/09/18 01:44:38;;;;;;;5.57;1.45;;;23.70;99.90;;;;;;5012497;28;20029;-51
2023/09/18 01:47:06;;;;;;;6.30;1.60;;;23.70;99.90;;;;;;5013195;28;20080;-51
2023/09/18 01:49:34;;;;;;;9.15;1.85;;;23.60;99.90;;;;;;5012893;28;20113;-51
2023/09/18 01:52:01;;;;;;;4.95;1.50;;;23.60;99.90;;;;;;5012896;28;20112;-51
2023/09/18 01:54:27;;;;;;;10.33;1.93;;;23.60;99.90;;;;;;4995377;28;20042;-51
2023/09/18 01:56:53;;;;;;;6.38;1.13;;;23.60;99.90;;;;;;5013030;28;20343;-51
2023/09/18 01:59:20;;;;;;;7.13;1.80;;;23.50;99.90;;;;;;5013023;28;20030;-51
2023/09/18 02:01:45;;;;;;;4.18;1.48;;;23.50;99.90;;;;;;5013591;28;20485;-51
2023/09/18 02:04:11;;;;;;;10.00;1.90;;;23.50;99.90;;;;;;5011424;28;20103;-51
2023/09/18 02:06:37;;;;;;;5.32;1.17;;;23.50;99.90;;;;;;5012908;28;20054;-51
2023/09/18 02:09:09;;;;;;;8.65;2.08;;;23.50;99.90;;;;;;5012804;28;20101;-51
2023/09/18 02:11:47;;;;;;;4.70;1.50;;;23.40;99.90;;;;;;5012926;28;20018;-51
2023/09/18 02:14:13;;;;;;;3.97;1.63;;;23.40;99.90;;;;;;5012462;28;20095;-51
2023/09/18 02:16:41;;;;;;;6.50;2.28;;;23.40;99.90;;;;;;5012691;28;20030;-51
2023/09/18 02:19:08;;;;;;;4.00;1.83;;;23.40;99.90;;;;;;4995058;28;20111;-51
2023/09/18 02:21:34;;;;;;;9.18;1.67;;;23.30;99.90;;;;;;5012573;28;20034;-51
2023/09/18 02:24:00;;;;;;;7.28;1.77;;;23.30;99.90;;;;;;5012653;28;20122;-51
2023/09/18 02:26:26;;;;;;;6.25;1.58;;;23.30;99.90;;;;;;5012234;28;20100;-51
2023/09/18 02:28:53;;;;;;;3.70;1.50;;;23.30;99.90;;;;;;5012431;28;20142;-51
2023/09/18 02:31:20;;;;;;;5.03;1.52;;;23.30;99.90;;;;;;5012442;28;20435;-51
2023/09/18 02:33:46;;;;;;;10.07;2.03;;;23.30;99.90;;;;;;5012161;28;20100;-51
2023/09/18 02:36:13;;;;;;;4.50;1.40;;;23.20;99.90;;;;;;5012518;28;20034;-51
2023/09/18 02:38:39;;;;;;;5.07;1.63;;;23.20;99.90;;;;;;5012509;28;20480;-52
2023/09/18 02:41:05;;;;;;;5.97;1.38;;;23.30;99.90;;;;;;5012458;28;20033;-51
2023/09/18 02:43:31;;;;;;;6.45;1.58;;;23.20;99.90;;;;;;5012183;28;20033;-51
2023/09/18 02:45:57;;;;;;;4.72;1.35;;;23.20;99.90;;;;;;5012120;28;20018;-51
2023/09/18 02:48:22;;;;;;;6.25;1.60;;;23.20;99.90;;;;;;5012253;28;20049;-51
2023/09/18 02:50:48;;;;;;;5.80;1.50;;;23.20;99.90;;;;;;5012168;28;20038;-51
2023/09/18 02:53:19;;;;;;;6.50;2.55;;;23.20;99.90;;;;;;5011761;28;20041;-51
2023/09/18 02:55:49;;;;;;;10.43;2.83;;;23.30;99.90;;;;;;5017028;28;20033;-50
2023/09/18 02:58:16;;;;;;;8.70;1.60;;;23.20;99.90;;;;;;5018645;28;20034;-51
2023/09/18 03:00:46;;;;;;;7.93;1.77;;;23.20;99.90;;;;;;5001669;28;20034;-50
2023/09/18 03:03:13;;;;;;;7.43;1.83;;;23.20;99.90;;;;;;5018607;28;20065;-51
2023/09/18 03:05:40;;;;;;;4.60;1.40;;;23.20;99.90;;;;;;5018766;28;20053;-52
2023/09/18 03:08:06;;;;;;;4.03;1.67;;;23.20;99.90;;;;;;5018592;28;20251;-51
2023/09/18 03:10:35;;;;;;;6.00;1.38;;;23.20;99.90;;;;;;5018728;28;20075;-51
2023/09/18 03:13:05;;;;;;;7.15;1.42;;;23.20;99.90;;;;;;5018435;28;20033;-51
2023/09/18 03:15:31;;;;;;;5.47;1.67;;;23.20;99.90;;;;;;5018547;28;20018;-51
2023/09/18 03:17:58;;;;;;;5.15;1.60;;;23.20;99.90;;;;;;5018617;28;20022;-51
2023/09/18 03:20:25;;;;;;;6.40;2.03;;;23.20;99.90;;;;;;5018662;28;20034;-51
2023/09/18 03:22:51;;;;;;;4.15;1.67;;;23.20;99.90;;;;;;5018485;28;20025;-52
2023/09/18 03:25:17;;;;;;;5.68;1.90;;;23.20;99.90;;;;;;5018476;28;20018;-51
2023/09/18 03:27:43;;;;;;;6.32;1.70;;;23.20;99.90;;;;;;5000927;28;20415;-52
2023/09/18 03:30:12;;;;;;;5.28;1.42;;;23.20;99.90;;;;;;5018504;28;20026;-51
2023/09/18 03:32:38;;;;;;;3.40;1.00;;;23.30;99.90;;;;;;5018309;28;20045;-51
2023/09/18 03:35:04;;;;;;;10.75;1.42;;;23.30;99.90;;;;;;5018330;28;20029;-50
2023/09/18 03:37:30;;;;;;;4.70;1.77;;;23.20;99.90;;;;;;5018287;28;20053;-51
2023/09/18 03:39:56;;;;;;;2.95;1.27;;;23.20;99.90;;;;;;5018511;28;20022;-51
2023/09/18 03:42:22;;;;;;;5.45;1.80;;;23.20;99.90;;;;;;5018275;28;20026;-52
2023/09/18 03:44:47;;;;;;;5.65;1.52;;;23.20;99.90;;;;;;5018306;28;20171;-51
2023/09/18 03:47:13;;;;;;;5.72;1.50;;;23.20;99.90;;;;;;5018466;28;20041;-51
2023/09/18 03:49:39;;;;;;;8.65;2.22;;;23.20;99.90;;;;;;5000813;28;20034;-51
2023/09/18 03:52:05;;;;;;;3.72;1.23;;;23.20;99.90;;;;;;5016693;28;20026;-52
2023/09/18 03:54:31;;;;;;;5.65;1.98;;;23.10;99.90;;;;;;5016264;28;20172;-51
2023/09/18 03:56:57;;;;;;;6.00;1.70;;;23.10;99.90;;;;;;5016198;28;20022;-53
2023/09/18 03:59:23;;;;;;;6.00;1.02;;;23.10;99.90;;;;;;5016962;28;20026;-51
2023/09/18 04:01:49;;;;;;;10.93;2.45;;;23.10;99.90;;;;;;5017913;28;20133;-52
2023/09/18 04:04:15;;;;;;;3.53;1.02;;;23.00;99.90;;;;;;5018139;28;20041;-51
2023/09/18 04:06:43;;;;;;;5.65;1.40;;;23.00;99.90;;;;;;5016035;28;20030;-51
2023/09/18 04:09:09;;;;;;;6.05;1.92;;;23.00;99.90;;;;;;5014949;28;20025;-51
2023/09/18 04:11:35;;;;;;;6.80;1.55;;;23.00;99.90;;;;;;5014857;28;20034;-51
2023/09/18 04:14:03;;;;;;;7.13;2.30;;;23.00;99.90;;;;;;5014835;28;20531;-51
2023/09/18 04:16:30;;;;;;;8.68;2.30;;;23.00;99.90;;;;;;5014904;28;20045;-52
2023/09/18 04:18:56;;;;;;;;;;;23.00;99.90;;;;;;5015313;28;20053;-51
2023/09/18 04:21:23;;;;;;;9.50;1.52;;;23.00;99.90;;;;;;5014886;28;20002;-51
2023/09/18 04:23:55;;;;;;;5.60;1.47;;;23.00;99.90;;;;;;5014763;28;20024;-51
2023/09/18 04:26:22;;;;;;;6.88;2.15;;;23.00;99.90;;;;;;5014593;28;20033;-51
2023/09/18 04:28:48;;;;;;;6.90;2.73;;;22.90;99.90;;;;;;5014751;28;20432;-51
2023/09/18 04:31:13;;;;;;;8.95;2.20;;;22.90;99.90;;;;;;5014610;28;20263;-51
2023/09/18 04:33:39;;;;;;;7.22;4.13;;;22.90;99.90;;;;;;5014355;28;20038;-51
2023/09/18 04:36:05;;;;;;;6.25;1.63;;;22.90;99.90;;;;;;5014526;28;20022;-51
2023/09/18 04:38:31;;;;;;;5.97;2.90;;;22.90;99.90;;;;;;5014351;28;20104;-51
2023/09/18 04:41:00;;;;;;;9.73;2.13;;;22.90;99.90;;;;;;4996521;28;20030;-51
2023/09/18 04:43:26;;;;;;;7.30;2.50;;;22.90;99.90;;;;;;5014120;28;20061;-51
2023/09/18 04:45:52;;;;;;;9.20;2.45;;;22.90;99.90;;;;;;4996607;28;20049;-51
2023/09/18 04:48:18;;;;;;;5.50;2.47;;;22.90;99.90;;;;;;5014207;28;20061;-51
2023/09/18 04:50:44;;;;;;;8.35;1.88;;;22.90;99.90;;;;;;4996709;28;20064;-51
2023/09/18 04:53:09;;;;;;;6.57;2.10;;;22.90;99.90;;;;;;5013939;28;20045;-51
2023/09/18 04:55:35;;;;;;;2.40;1.27;;;22.90;99.90;;;;;;5014093;28;20025;-51
2023/09/18 04:58:01;;;;;;;9.00;2.05;;;22.90;99.90;;;;;;5013917;28;20050;-51
2023/09/18 05:00:29;;;;;;;4.18;1.52;;;22.80;99.90;;;;;;5013804;28;20017;-52
2023/09/18 05:02:55;;;;;;;5.45;1.80;;;22.80;99.90;;;;;;5013888;28;20041;-51
2023/09/18 05:05:21;;;;;;;7.70;2.03;;;22.80;99.90;;;;;;5014078;28;20029;-50
2023/09/18 05:07:47;;;;;;;11.30;2.70;;;22.80;99.90;;;;;;5013890;28;20026;-51
2023/09/18 05:10:13;;;;;;;8.57;2.75;;;22.80;99.90;;;;;;5013772;28;20029;-51
2023/09/18 05:12:40;;;;;;;6.40;2.38;;;22.80;99.90;;;;;;5013719;28;20042;-50
2023/09/18 05:15:07;;;;;;;15.60;2.72;;;22.70;99.90;;;;;;5013703;28;20025;-50
2023/09/18 05:17:56;;;;;;;8.68;2.00;;;22.70;99.90;;;;;;5013131;28;20109;-50
2023/09/18 05:20:24;;;;;;;6.40;2.03;;;22.70;99.90;;;;;;5013438;28;20018;-50
2023/09/18 05:22:52;;;;;;;6.15;1.73;;;22.70;99.90;;;;;;5013591;28;20037;-50
2023/09/18 05:25:19;;;;;;;4.93;1.80;;;22.60;99.90;;;;;;4996114;28;20025;-50
2023/09/18 05:27:44;;;;;;;13.10;1.88;;;22.60;99.90;;;;;;5013508;28;20492;-51
2023/09/18 05:30:16;;;;;;;6.85;2.33;;;22.60;99.90;;;;;;5013524;28;20030;-50
2023/09/18 05:32:43;;;;;;;7.90;1.50;;;22.60;99.90;;;;;;5013339;28;20037;-50
2023/09/18 05:35:12;;;;;;;8.45;2.88;;;22.60;99.90;;;;;;5013390;28;20025;-50
2023/09/18 05:37:39;;;;;;;6.50;1.80;;;22.60;99.90;;;;;;5013553;28;20084;-51
2023/09/18 05:40:09;;;;;;;5.55;2.20;;;22.60;99.90;;;;;;5013379;28;20045;-50
2023/09/18 05:42:36;;;;;;;6.70;1.88;;;22.60;99.90;;;;;;5012920;28;20061;-50
2023/09/18 05:45:04;;;;;;;4.10;1.60;;;22.60;99.90;;;;;;5013188;28;20028;-50
2023/09/18 05:47:32;;;;;;;6.50;1.85;;;22.60;99.90;;;;;;5013120;28;20447;-50
2023/09/18 05:49:58;;;;;;;6.40;2.10;;;22.50;99.90;;;;;;5012774;28;20084;-51
2023/09/18 05:52:25;;;;;;;6.60;2.30;;;22.50;99.90;;;;;;5012842;28;20065;-51
2023/09/18 05:54:51;;;;;;;5.13;1.75;;;22.60;99.90;;;;;;5013101;28;20050;-57
2023/09/18 05:57:17;;;;;;;6.70;2.20;;;22.50;99.90;;;;;;5012913;28;20057;-50
2023/09/18 05:59:44;;;;;;;11.02;5.78;;;22.50;99.90;;;;;;5012934;28;20026;-50
2023/09/18 06:02:11;;;;;;;19.48;10.88;;;22.60;99.90;;;;;;5012376;28;20052;-50
2023/09/18 06:04:36;;;;;;;11.02;2.50;;;22.60;99.90;;;;;;5012612;28;20041;-50
2023/09/18 06:07:05;;;;;;;15.57;7.18;;;22.50;99.90;;;;;;4994899;28;20040;-49
2023/09/18 06:09:31;;;;;;;10.77;3.53;;;22.60;99.90;;;;;;5012749;28;20038;-52
2023/09/18 06:11:59;;;;;;;10.82;3.90;;;22.60;99.90;;;;;;5012478;28;20022;-49
2023/09/18 06:14:25;;;;;;;10.00;4.03;;;22.70;99.90;;;;;;5012406;28;20137;-49
2023/09/18 06:16:51;;;;;;;11.98;2.80;;;22.80;99.90;;;;;;5012406;28;20064;-50
2023/09/18 06:19:17;;;;;;;13.25;6.05;;;22.80;99.90;;;;;;5012666;28;20029;-49
2023/09/18 06:21:44;;;;;;;10.43;4.90;;;22.90;99.90;;;;;;5012382;28;20030;-49
2023/09/18 06:24:10;;;;;;;20.57;10.77;;;23.00;99.90;;;;;;5012598;28;20353;-51
2023/09/18 06:26:36;;;;;;;11.27;5.30;;;23.00;99.90;;;;;;5012561;28;20026;-49
2023/09/18 06:29:02;;;;;;;7.43;2.90;;;23.10;99.90;;;;;;5011850;28;20029;-50
2023/09/18 06:31:28;;;;;;;8.73;3.03;;;23.10;99.90;;;;;;5012204;28;20030;-50
2023/09/18 06:33:54;;;;;;;13.68;4.57;;;23.20;99.90;;;;;;5012282;28;20120;-50
2023/09/18 06:36:20;;;;;;;12.40;4.50;;;23.20;99.90;;;;;;5012657;28;20376;-50
2023/09/18 06:38:46;;;;;;;7.28;2.80;;;23.30;99.90;;;;;;5012244;28;20076;-50
2023/09/18 06:41:12;;;;;;;7.55;2.03;;;23.30;99.90;;;;;;5012278;28;20038;-50
2023/09/18 06:43:38;;;;;;;8.32;2.53;;;23.40;99.90;;;;;;5012302;28;20029;-50
2023/09/18 06:46:06;;;;;;;8.23;2.90;;;23.40;99.90;;;;;;5012268;28;20145;-50
2023/09/18 06:48:32;;;;;;;7.97;2.30;;;23.40;99.90;;;;;;5012107;28;20034;-50
2023/09/18 06:50:59;;;;;;;7.13;2.10;;;23.50;99.90;;;;;;5012221;28;20054;-51
2023/09/18 06:53:27;;;;;;;18.27;2.75;;;23.50;99.90;;;;;;5012179;28;20042;-51
2023/09/18 06:55:53;;;;;;;9.00;2.20;;;23.60;99.90;;;;;;5012366;28;20045;-51
2023/09/18 06:58:19;;;;;;;14.45;3.03;;;23.60;99.90;;;;;;5011852;28;20503;-51
2023/09/18 07:00:45;;;;;;;11.38;3.15;;;23.60;99.90;;;;;;5011925;28;20539;-51
2023/09/18 07:03:11;;;;;;;9.57;2.35;;;23.70;99.90;;;;;;5011903;28;20149;-50
2023/09/18 07:05:37;;;;;;;5.85;1.95;;;23.70;99.90;;;;;;5012002;28;20053;-50
2023/09/18 07:08:05;;;;;;;8.30;2.30;;;23.70;99.90;;;;;;5012013;28;20060;-51
2023/09/18 07:10:32;;;;;;;10.43;2.25;;;23.80;99.90;;;;;;5012015;28;20042;-51
2023/09/18 07:12:58;;;;;;;;;;;23.80;99.90;;;;;;5012232;28;20030;-51
2023/09/18 07:15:24;;;;;;;5.63;2.08;;;23.90;99.90;;;;;;5012242;28;19933;-50
2023/09/18 07:17:50;;;;;;;7.07;1.90;;;23.90;99.90;;;;;;5012191;28;20022;-50
2023/09/18 07:20:16;;;;;;;9.15;1.90;;;23.90;99.90;;;;;;5013569;28;20033;-50
2023/09/18 07:22:46;;;;;;;6.37;2.13;;;23.90;99.90;;;;;;5010120;28;20350;-51
2023/09/18 07:25:12;;;;;;;5.20;2.00;;;24.00;99.90;;;;;;5009727;28;20022;-51
2023/09/18 07:27:43;;;;;;;11.45;2.17;;;24.00;99.90;;;;;;5009485;28;20549;-50
2023/09/18 07:30:16;;;;;;;5.15;1.75;;;24.10;99.90;;;;;;5009565;28;20383;-50
2023/09/18 07:32:42;;;;;;;6.53;1.98;;;24.10;99.90;;;;;;5009400;28;20092;-51
2023/09/18 07:35:09;;;;;;;4.45;2.03;;;24.10;99.90;;;;;;5009614;28;20069;-51
2023/09/18 07:37:35;;;;;;;5.72;1.30;;;24.20;99.90;;;;;;5009610;28;20055;-49
2023/09/18 07:40:10;;;;;;;5.47;1.80;;;24.20;99.90;;;;;;5010791;28;20073;-50
2023/09/18 07:42:36;;;;;;;7.43;1.92;;;24.20;99.90;;;;;;5013999;28;20105;-50
2023/09/18 07:45:02;;;;;;;7.95;1.77;;;24.30;99.90;;;;;;5015439;28;20088;-50
2023/09/18 07:47:28;;;;;;;7.10;1.73;;;24.30;99.90;;;;;;5015294;28;20532;-51
2023/09/18 07:49:54;;;;;;;7.35;1.75;;;24.30;99.90;;;;;;5015685;28;20101;-50
2023/09/18 07:52:20;;;;;;;8.20;1.67;;;24.40;99.90;;;;;;5015223;28;20056;-50
2023/09/18 07:54:46;;;;;;;4.25;2.33;;;24.40;99.90;;;;;;5015248;28;20065;-50
2023/09/18 07:57:12;;;;;;;7.50;2.72;;;24.50;99.90;;;;;;5015128;28;20050;-51
2023/09/18 07:59:38;;;;;;;7.05;1.73;;;24.50;99.90;;;;;;5015006;28;20105;-50
2023/09/18 08:02:05;;;;;;;9.50;1.90;;;24.60;99.90;;;;;;5014891;28;20042;-50
2023/09/18 08:04:34;;;;;;;5.82;2.08;;;24.60;99.90;;;;;;5014948;28;20050;-50
2023/09/18 08:07:00;;;;;;;8.80;1.75;;;24.60;99.90;;;;;;5014632;28;20069;-51
2023/09/18 08:09:29;;;;;;;9.43;2.25;;;24.70;99.90;;;;;;5015195;28;20041;-50
2023/09/18 08:11:55;;;;;;;10.70;2.00;;;24.70;99.90;;;;;;5015160;28;20080;-50
2023/09/18 08:14:22;;;;;;;3.88;1.73;;;24.70;99.90;;;;;;5014667;28;20404;-51
2023/09/18 08:16:47;;;;;;;8.90;2.03;;;24.70;99.90;;;;;;5014768;28;20022;-50
2023/09/18 08:19:19;;;;;;;5.82;1.98;;;24.80;99.90;;;;;;5014576;28;20106;-50
2023/09/18 08:21:46;;;;;;;7.65;2.67;;;24.80;99.90;;;;;;4996991;28;20033;-50
2023/09/18 08:24:12;;;;;;;10.73;3.40;;;24.90;99.90;;;;;;5014875;28;20420;-50
2023/09/18 08:26:37;;;;;;;6.03;2.50;;;24.90;99.90;;;;;;5014558;28;20049;-50
2023/09/18 08:29:03;;;;;;;8.73;2.00;;;25.00;99.90;;;;;;5014427;28;20515;-51
2023/09/18 08:31:31;;;;;;;8.73;3.10;;;25.00;99.90;;;;;;5014450;28;20018;-51
2023/09/18 08:33:57;;;;;;;;;;;25.00;99.90;;;;;;4997408;28;20060;-50
2023/09/18 08:36:23;;;;;;;11.95;6.88;;;25.00;99.90;;;;;;5014221;28;19994;-50
2023/09/18 08:38:49;;;;;;;10.93;4.63;;;25.00;99.90;;;;;;5014136;28;20026;-51
2023/09/18 08:41:19;;;;;;;10.63;2.85;;;25.10;99.90;;;;;;5014310;28;20033;-52
2023/09/18 08:43:48;;;;;;;5.80;2.55;;;25.10;99.90;;;;;;4996905;28;20028;-52
2023/09/18 08:46:14;;;;;;;8.30;2.67;;;25.20;99.90;;;;;;5014121;28;20092;-52
2023/09/18 08:48:41;;;;;;;6.30;2.35;;;25.20;99.90;;;;;;5014174;28;20056;-51
2023/09/18 08:51:08;;;;;;;8.37;2.83;;;25.20;99.90;;;;;;5014013;28;20022;-51
2023/09/18 08:53:35;;;;;;;6.32;3.30;;;25.30;99.90;;;;;;5013630;28;20282;-51
2023/09/18 08:56:03;;;;;;;9.43;4.57;;;25.30;99.90;;;;;;5013965;28;20029;-52
2023/09/18 08:58:35;;;;;;;9.20;2.03;;;25.30;99.90;;;;;;5014245;28;20030;-51
2023/09/18 09:01:05;;;;;;;7.57;2.80;;;25.40;99.90;;;;;;5013847;28;20066;-50
2023/09/18 09:03:34;;;;;;;10.95;6.05;;;25.40;99.90;;;;;;5013763;28;20056;-51
2023/09/18 09:06:01;;;;;;;11.48;4.85;;;25.40;99.90;;;;;;5013858;28;20046;-51
2023/09/18 09:08:28;;;;;;;8.60;2.78;;;25.50;99.90;;;;;;5013978;28;20018;-52
2023/09/18 09:10:54;;;;;;;;;;;25.50;99.90;;;;;;5014223;28;20452;-51
2023/09/18 09:13:25;;;;;;;8.38;3.78;;;25.50;99.90;;;;;;5013735;28;20454;-51
2023/09/18 09:15:56;;;;;;;6.03;2.97;;;25.60;99.90;;;;;;5013602;28;20029;-51
2023/09/18 09:18:27;;;;;;;9.00;3.50;;;25.60;99.90;;;;;;5014001;28;20045;-52
2023/09/18 09:20:58;;;;;;;7.65;3.00;;;25.60;99.90;;;;;;5013562;28;20026;-52
2023/09/18 09:23:45;;;;;;;7.95;3.65;;;25.70;99.90;;;;;;5013476;28;20022;-52
2023/09/18 09:26:16;;;;;;;7.40;3.50;;;25.70;99.90;;;;;;5012899;28;20034;-52
2023/09/18 09:28:43;;;;;;;5.05;3.08;;;25.80;99.90;;;;;;5013724;28;20072;-52
2023/09/18 09:31:13;;;;;;;5.75;3.10;;;25.80;99.90;;;;;;5013557;28;20022;-52
2023/09/18 09:33:53;;;;;;;8.52;3.95;;;25.80;99.90;;;;;;5013365;28;20392;-52
2023/09/18 09:36:20;;;;;;;8.27;3.47;;;25.80;99.90;;;;;;4995549;28;20026;-52
2023/09/18 09:38:46;;;;;;;9.05;3.60;;;25.90;99.90;;;;;;5013394;28;20044;-52
2023/09/18 09:41:17;;;;;;;12.75;5.07;;;25.90;99.90;;;;;;5013270;28;20026;-52
2023/09/18 09:43:44;;;;;;;8.68;4.13;;;26.00;99.90;;;;;;5013335;28;20029;-51
2023/09/18 09:46:18;;;;;;;5.28;2.35;;;26.00;99.90;;;;;;5013336;28;20026;-51
2023/09/18 09:49:03;;;;;;;4.68;1.92;;;26.00;99.90;;;;;;5013058;28;20057;-52
2023/09/18 09:51:29;;;;;;;5.35;1.70;;;26.10;99.90;;;;;;5013280;28;20453;-52
2023/09/18 09:53:58;;;;;;;5.30;1.58;;;26.20;99.90;;;;;;5012783;28;20124;-52
2023/09/18 09:56:40;;;;;;;5.43;2.03;;;26.20;99.90;;;;;;5012980;28;20113;-52
2023/09/18 09:59:08;;;;;;;5.60;2.15;;;26.30;99.90;;;;;;5012858;28;20167;-52
2023/09/18 10:01:35;;;;;;;9.75;1.73;;;26.40;99.90;;;;;;5012852;28;20103;-52
2023/09/18 10:04:08;;;;;;;6.40;1.75;;;26.40;99.90;;;;;;5012601;28;20064;-51
2023/09/18 10:06:35;;;;;;;11.25;2.33;;;26.40;99.90;;;;;;5012861;28;20029;-52
2023/09/18 10:09:05;;;;;;;5.53;1.52;;;26.50;99.90;;;;;;5012764;28;20026;-51
2023/09/18 10:11:33;;;;;;;4.35;1.52;;;26.50;99.90;;;;;;5012671;28;20018;-51
2023/09/18 10:14:12;;;;;;;8.63;3.00;;;26.50;99.90;;;;;;5012699;28;20037;-52
2023/09/18 10:16:41;;;;;;;5.10;1.52;;;26.60;99.90;;;;;;5012692;28;20022;-52
2023/09/18 10:19:33;;;;;;;5.70;2.05;;;26.60;99.90;;;;;;5012641;28;20030;-52
2023/09/18 10:22:22;;;;;;;11.07;1.85;;;26.60;99.90;;;;;;5012555;28;20037;-52
2023/09/18 10:24:50;;;;;;;4.15;1.40;;;26.70;99.90;;;;;;5012305;28;20037;-52
2023/09/18 10:27:18;;;;;;;9.73;3.05;;;26.70;99.90;;;;;;5012491;28;20022;-51
2023/09/18 10:29:48;;;;;;;4.68;1.38;;;26.70;99.90;;;;;;5012443;28;20029;-51
2023/09/18 10:32:15;;;;;;;8.35;2.15;;;26.70;99.90;;;;;;4994645;28;20468;-51
2023/09/18 10:34:43;;;;;;;7.75;1.75;;;26.70;99.90;;;;;;5012220;28;20030;-51
2023/09/18 10:37:11;;;;;;;6.68;1.70;;;26.70;99.90;;;;;;5012195;28;20030;-51
2023/09/18 10:39:43;;;;;;;8.90;1.33;;;26.80;99.90;;;;;;5012188;28;20026;-51
2023/09/18 10:42:09;;;;;;;5.75;2.05;;;26.70;99.90;;;;;;5012333;28;20040;-52
2023/09/18 10:44:36;;;;;;;4.85;2.13;;;26.80;99.90;;;;;;5012237;28;20109;-52
2023/09/18 10:47:07;;;;;;;5.10;1.42;;;26.70;99.90;;;;;;4994768;28;20026;-52
2023/09/18 10:49:35;;;;;;;5.25;1.38;;;26.80;99.90;;;;;;5012196;28;20018;-52
2023/09/18 10:52:01;;;;;;;5.40;1.60;;;26.80;99.90;;;;;;5012551;28;20464;-52
2023/09/18 10:54:29;;;;;;;8.63;1.83;;;26.80;99.90;;;;;;5011910;28;20042;-52
2023/09/18 10:56:57;;;;;;;4.63;1.35;;;26.80;99.90;;;;;;5012107;28;20022;-52
2023/09/18 10:59:23;;;;;;;2.30;1.67;;;26.90;99.90;;;;;;5012355;28;20485;-52
2023/09/18 11:01:49;;;;;;;7.70;2.15;;;26.80;99.90;;;;;;5012101;28;20049;-52
2023/09/18 11:04:19;;;;;;;5.82;2.22;;;26.90;99.90;;;;;;5012089;28;20080;-52
2023/09/18 11:06:54;;;;;;;4.82;2.00;;;26.90;99.90;;;;;;5012222;28;20022;-52
2023/09/18 11:09:25;;;;;;;6.00;2.85;;;26.90;99.90;;;;;;5012029;28;20109;-52
2023/09/18 11:11:57;;;;;;;4.68;2.10;;;26.90;99.90;;;;;;5012059;28;20033;-52
2023/09/18 11:14:56;;;;;;;2.83;1.70;;;27.00;99.90;;;;;;5011937;28;20496;-52
2023/09/18 11:17:31;;;;;;;2.20;1.17;;;27.00;99.90;;;;;;5015820;28;20018;-52
2023/09/18 11:20:12;;;;;;;4.50;1.50;;;26.90;99.90;;;;;;5016042;28;20449;-52
2023/09/18 11:22:47;;;;;;;3.80;1.40;;;27.00;99.90;;;;;;5015933;28;20100;-52
2023/09/18 11:25:48;;;;;;;9.95;2.40;;;27.00;99.90;;;;;;5015983;28;20033;-52
2023/09/18 11:28:23;;;;;;;3.70;1.52;;;27.10;99.90;;;;;;4984107;28;20037;-52
2023/09/18 11:30:58;;;;;;;7.30;1.90;;;27.10;99.90;;;;;;5015960;28;20022;-52
2023/09/18 11:33:43;;;;;;;5.53;2.20;;;27.10;99.90;;;;;;4998863;28;20045;-52
2023/09/18 11:36:14;;;;;;;9.32;3.38;;;27.10;99.90;;;;;;5015629;28;20029;-50
2023/09/18 11:38:56;;;;;;;5.10;1.55;;;27.20;99.90;;;;;;5015621;28;20519;-51
2023/09/18 11:41:25;;;;;;;6.28;1.80;;;27.20;99.90;;;;;;5015458;28;20030;-51
2023/09/18 11:43:51;;;;;;;8.50;4.35;;;27.20;99.90;;;;;;5015246;28;20025;-55
2023/09/18 11:46:21;;;;;;;5.30;2.80;;;27.20;99.90;;;;;;5015220;28;20376;-51
2023/09/18 11:48:50;;;;;;;5.47;2.42;;;27.30;99.90;;;;;;5015309;28;20056;-51
2023/09/18 11:51:22;;;;;;;8.10;3.75;;;27.30;99.90;;;;;;5015243;28;20014;-51
2023/09/18 11:53:53;;;;;;;7.35;2.95;;;27.30;99.90;;;;;;5015088;28;20069;-51
2023/09/18 11:56:20;;;;;;;7.53;2.10;;;27.30;99.90;;;;;;5014884;28;20468;-51
2023/09/18 11:58:51;;;;;;;5.43;2.00;;;27.30;99.90;;;;;;5015109;28;20018;-51
2023/09/18 12:01:18;;;;;;;7.53;2.35;;;27.30;99.90;;;;;;5015105;28;20500;-51
2023/09/18 12:03:44;;;;;;;;;;;27.40;99.90;;;;;;5015564;28;20105;-51
2023/09/18 12:06:14;;;;;;;8.82;3.17;;;27.30;99.90;;;;;;5015170;28;19945;-51
2023/09/18 12:08:41;;;;;;;5.75;2.45;;;27.30;99.90;;;;;;5014840;28;20036;-51
2023/09/18 12:11:07;;;;;;;8.88;2.65;;;27.30;99.90;;;;;;5015154;28;20029;-51
2023/09/18 12:13:33;;;;;;;12.20;2.07;;;27.30;99.90;;;;;;5014977;28;20034;-51
2023/09/18 12:16:05;;;;;;;10.27;3.38;;;27.30;99.90;;;;;;5014834;28;20022;-52
2023/09/18 12:18:34;;;;;;;8.57;3.85;;;27.30;99.90;;;;;;5014878;28;20040;-51
2023/09/18 12:21:04;;;;;;;12.48;5.57;;;27.20;99.90;;;;;;4997162;28;20348;-51
2023/09/18 12:23:37;;;;;;;7.70;3.10;;;27.20;99.90;;;;;;5015140;28;20050;-51
2023/09/18 12:26:03;;;;;;;11.73;5.13;;;27.20;99.90;;;;;;5014771;28;20018;-52
2023/09/18 12:28:29;;;;;;;9.02;3.88;;;27.20;99.90;;;;;;5014007;28;20507;-51
2023/09/18 12:30:56;;;;;;;10.48;7.32;;;27.30;99.90;;;;;;5014790;28;20030;-51
2023/09/18 12:33:23;;;;;;;10.98;5.05;;;27.30;99.90;;;;;;5014675;28;20464;-51
2023/09/18 12:35:51;;;;;;;9.18;2.80;;;27.20;99.90;;;;;;5014659;28;20040;-51
2023/09/18 12:38:22;;;;;;;;;;;27.30;99.90;;;;;;5015005;28;20050;-51
2023/09/18 12:40:49;;;;;;;5.95;3.63;;;27.30;99.90;;;;;;5014652;28;19910;-51
2023/09/18 12:43:16;;;;;;;7.80;2.65;;;27.30;99.90;;;;;;5014502;28;20472;-51
2023/09/18 12:45:44;;;;;;;7.17;2.17;;;27.30;99.90;;;;;;5014754;28;20049;-51
2023/09/18 12:48:10;;;;;;;4.72;2.60;;;27.20;99.90;;;;;;5014709;28;20318;-51
2023/09/18 12:50:36;;;;;;;7.63;2.90;;;27.20;99.90;;;;;;5013891;28;20089;-50
2023/09/18 12:53:12;;;;;;;6.60;2.60;;;27.10;99.90;;;;;;5015206;28;20039;-51